sensor_id;sensor_type;location;lat;lon;timestamp;P1;durP1;ratioP1;P2;durP2;ratioP2
12425;SDS011;6277;49.824;9.562;2023-08-31T00:01:40;0.00;;;0.00;;
12425;SDS011;6277;49.824;9.562;2023-08-31T00:04:06;0.00;;;0.00;;
12425;SDS011;6277;49.824;9.562;2023-08-31T00:09:10;0.00;;;0.00;;
12425;SDS011;6277;49.824;9.562;2023-08-31T00:11:36;0.00;;;0.00;;
12425;SDS011;6277;49.824;9.562;2023-08-31T00:14:01;0.00;;;0.00;;
12425;SDS011;6277;49.824;9.562;2023-08-31T00:16:27;0.00;;;0.00;;
12425;SDS011;6277;49.824;9.562;2023-08-31T00:18:53;0.00;;;0.00;;
12425;SDS011;6277;49.824;9.562;2023-08-31T00:21:22;0.00;;;0.00;;
12425;SDS011;6277;49.824;9.562;2023-08-31T00:23:47;0.00;;;0.00;;
12425;SDS011;6277;49.824;9.562;2023-08-31T00:26:13;0.00;;;0.00;;
12425;SDS011;6277;49.824;9.562;2023-08-31T00:28:39;0.00;;;0.00;;
12425;SDS011;6277;49.824;9.562;2023-08-31T00:31:07;0.00;;;0.00;;
12425;SDS011;6277;49.824;9.562;2023-08-31T00:33:33;0.00;;;0.00;;
12425;SDS011;6277;49.824;9.562;2023-08-31T00:35:59;0.00;;;0.00;;
12425;SDS011;6277;49.824;9.562;2023-08-31T00:38:28;0.00;;;0.00;;
12425;SDS011;6277;49.824;9.562;2023-08-31T00:40:57;0.00;;;0.00;;
12425;SDS011;6277;49.824;9.562;2023-08-31T00:43:22;0.00;;;0.00;;
12425;SDS011;6277;49.824;9.562;2023-08-31T00:45:49;0.00;;;0.00;;
12425;SDS011;6277;49.824;9.562;2023-08-31T00:48:16;0.00;;;0.00;;
12425;SDS011;6277;49.824;9.562;2023-08-31T00:50:45;0.00;;;0.00;;
12425;SDS011;6277;49.824;9.562;2023-08-31T00:53:12;0.00;;;0.00;;
12425;SDS011;6277;49.824;9.562;2023-08-31T00:55:38;0.00;;;0.00;;
12425;SDS011;6277;49.824;9.562;2023-08-31T00:58:05;0.00;;;0.00;;
12425;SDS011;6277;49.824;9.562;2023-08-31T01:00:33;0.00;;;0.00;;
12425;SDS011;6277;49.824;9.562;2023-08-31T01:08:49;0.00;;;0.00;;
12425;SDS011;6277;49.824;9.562;2023-08-31T01:14:07;0.00;;;0.00;;
12425;SDS011;6277;49.824;9.562;2023-08-31T01:16:36;0.00;;;0.00;;
12425;SDS011;6277;49.824;9.562;2023-08-31T01:19:09;0.00;;;0.00;;
12425;SDS011;6277;49.824;9.562;2023-08-31T01:21:50;0.00;;;0.00;;
12425;SDS011;6277;49.824;9.562;2023-08-31T01:24:19;0.00;;;0.00;;
12425;SDS011;6277;49.824;9.562;2023-08-31T01:26:46;0.00;;;0.00;;
12425;SDS011;6277;49.824;9.562;2023-08-31T01:29:12;0.10;;;0.10;;
12425;SDS011;6277;49.824;9.562;2023-08-31T01:31:41;0.10;;;0.10;;
12425;SDS011;6277;49.824;9.562;2023-08-31T01:34:08;0.05;;;0.05;;
12425;SDS011;6277;49.824;9.562;2023-08-31T01:36:34;0.10;;;0.10;;
12425;SDS011;6277;49.824;9.562;2023-08-31T01:39:14;0.00;;;0.00;;
12425;SDS011;6277;49.824;9.562;2023-08-31T01:41:53;0.00;;;0.00;;
12425;SDS011;6277;49.824;9.562;2023-08-31T01:44:21;0.00;;;0.00;;
12425;SDS011;6277;49.824;9.562;2023-08-31T01:46:51;0.10;;;0.10;;
12425;SDS011;6277;49.824;9.562;2023-08-31T01:49:19;0.10;;;0.10;;
12425;SDS011;6277;49.824;9.562;2023-08-31T01:51:46;0.28;;;0.10;;
12425;SDS011;6277;49.824;9.562;2023-08-31T01:54:11;0.00;;;0.00;;
12425;SDS011;6277;49.824;9.562;2023-08-31T01:56:37;0.17;;;0.10;;
12425;SDS011;6277;49.824;9.562;2023-08-31T01:59:02;0.10;;;0.10;;
12425;SDS011;6277;49.824;9.562;2023-08-31T02:01:28;0.10;;;0.10;;
12425;SDS011;6277;49.824;9.562;2023-08-31T02:03:54;0.20;;;0.13;;
12425;SDS011;6277;49.824;9.562;2023-08-31T02:06:20;0.10;;;0.10;;
12425;SDS011;6277;49.824;9.562;2023-08-31T02:08:45;0.00;;;0.00;;
12425;SDS011;6277;49.824;9.562;2023-08-31T02:11:12;0.00;;;0.00;;
12425;SDS011;6277;49.824;9.562;2023-08-31T02:13:38;0.00;;;0.00;;
12425;SDS011;6277;49.824;9.562;2023-08-31T02:16:05;0.00;;;0.00;;
12425;SDS011;6277;49.824;9.562;2023-08-31T02:18:30;0.00;;;0.00;;
12425;SDS011;6277;49.824;9.562;2023-08-31T02:20:56;0.00;;;0.00;;
12425;SDS011;6277;49.824;9.562;2023-08-31T02:23:22;0.00;;;0.00;;
12425;SDS011;6277;49.824;9.562;2023-08-31T02:25:48;0.00;;;0.00;;
12425;SDS011;6277;49.824;9.562;2023-08-31T02:28:13;0.00;;;0.00;;
12425;SDS011;6277;49.824;9.562;2023-08-31T02:30:39;0.00;;;0.00;;
12425;SDS011;6277;49.824;9.562;2023-08-31T02:33:04;0.00;;;0.00;;
12425;SDS011;6277;49.824;9.562;2023-08-31T02:35:30;0.00;;;0.00;;
12425;SDS011;6277;49.824;9.562;2023-08-31T02:37:55;0.00;;;0.00;;
12425;SDS011;6277;49.824;9.562;2023-08-31T02:40:21;0.00;;;0.00;;
12425;SDS011;6277;49.824;9.562;2023-08-31T02:42:49;0.00;;;0.00;;
12425;SDS011;6277;49.824;9.562;2023-08-31T02:45:16;0.00;;;0.00;;
12425;SDS011;6277;49.824;9.562;2023-08-31T02:47:42;0.00;;;0.00;;
12425;SDS011;6277;49.824;9.562;2023-08-31T02:50:08;0.00;;;0.00;;
12425;SDS011;6277;49.824;9.562;2023-08-31T02:52:34;0.00;;;0.00;;
12425;SDS011;6277;49.824;9.562;2023-08-31T02:54:59;0.00;;;0.00;;
12425;SDS011;6277;49.824;9.562;2023-08-31T02:57:25;0.00;;;0.00;;
12425;SDS011;6277;49.824;9.562;2023-08-31T02:59:50;0.00;;;0.00;;
12425;SDS011;6277;49.824;9.562;2023-08-31T03:02:16;0.00;;;0.00;;
12425;SDS011;6277;49.824;9.562;2023-08-31T03:04:42;0.00;;;0.00;;
12425;SDS011;6277;49.824;9.562;2023-08-31T03:07:07;0.00;;;0.00;;
12425;SDS011;6277;49.824;9.562;2023-08-31T03:09:33;0.00;;;0.00;;
12425;SDS011;6277;49.824;9.562;2023-08-31T03:11:58;0.00;;;0.00;;
12425;SDS011;6277;49.824;9.562;2023-08-31T03:14:24;0.00;;;0.00;;
12425;SDS011;6277;49.824;9.562;2023-08-31T03:16:50;0.00;;;0.00;;
12425;SDS011;6277;49.824;9.562;2023-08-31T03:19:16;0.00;;;0.00;;
12425;SDS011;6277;49.824;9.562;2023-08-31T03:21:41;0.00;;;0.00;;
12425;SDS011;6277;49.824;9.562;2023-08-31T03:24:07;0.00;;;0.00;;
12425;SDS011;6277;49.824;9.562;2023-08-31T03:26:33;0.00;;;0.00;;
12425;SDS011;6277;49.824;9.562;2023-08-31T03:28:59;0.00;;;0.00;;
12425;SDS011;6277;49.824;9.562;2023-08-31T03:31:24;0.00;;;0.00;;
12425;SDS011;6277;49.824;9.562;2023-08-31T03:33:50;0.00;;;0.00;;
12425;SDS011;6277;49.824;9.562;2023-08-31T03:36:15;0.00;;;0.00;;
12425;SDS011;6277;49.824;9.562;2023-08-31T03:38:41;0.00;;;0.00;;
12425;SDS011;6277;49.824;9.562;2023-08-31T03:41:07;0.00;;;0.00;;
12425;SDS011;6277;49.824;9.562;2023-08-31T03:43:32;0.00;;;0.00;;
12425;SDS011;6277;49.824;9.562;2023-08-31T03:45:59;0.00;;;0.00;;
12425;SDS011;6277;49.824;9.562;2023-08-31T03:48:25;0.00;;;0.00;;
12425;SDS011;6277;49.824;9.562;2023-08-31T03:50:51;0.00;;;0.00;;
12425;SDS011;6277;49.824;9.562;2023-08-31T03:53:18;0.00;;;0.00;;
12425;SDS011;6277;49.824;9.562;2023-08-31T03:55:44;0.00;;;0.00;;
12425;SDS011;6277;49.824;9.562;2023-08-31T03:58:09;0.00;;;0.00;;
12425;SDS011;6277;49.824;9.562;2023-08-31T04:00:36;0.00;;;0.00;;
12425;SDS011;6277;49.824;9.562;2023-08-31T04:03:02;0.00;;;0.00;;
12425;SDS011;6277;49.824;9.562;2023-08-31T04:05:31;0.00;;;0.00;;
12425;SDS011;6277;49.824;9.562;2023-08-31T04:07:57;0.00;;;0.00;;
12425;SDS011;6277;49.824;9.562;2023-08-31T04:10:23;0.00;;;0.00;;
12425;SDS011;6277;49.824;9.562;2023-08-31T04:12:50;0.00;;;0.00;;
12425;SDS011;6277;49.824;9.562;2023-08-31T04:15:15;0.00;;;0.00;;
12425;SDS011;6277;49.824;9.562;2023-08-31T04:17:41;0.00;;;0.00;;
12425;SDS011;6277;49.824;9.562;2023-08-31T04:20:07;0.00;;;0.00;;
12425;SDS011;6277;49.824;9.562;2023-08-31T04:22:33;0.00;;;0.00;;
12425;SDS011;6277;49.824;9.562;2023-08-31T04:24:59;0.00;;;0.00;;
12425;SDS011;6277;49.824;9.562;2023-08-31T04:27:24;0.00;;;0.00;;
12425;SDS011;6277;49.824;9.562;2023-08-31T04:29:50;0.00;;;0.00;;
12425;SDS011;6277;49.824;9.562;2023-08-31T04:32:15;0.00;;;0.00;;
12425;SDS011;6277;49.824;9.562;2023-08-31T04:34:41;0.00;;;0.00;;
12425;SDS011;6277;49.824;9.562;2023-08-31T04:37:06;0.00;;;0.00;;
12425;SDS011;6277;49.824;9.562;2023-08-31T04:39:32;0.00;;;0.00;;
12425;SDS011;6277;49.824;9.562;2023-08-31T04:41:57;0.00;;;0.00;;
12425;SDS011;6277;49.824;9.562;2023-08-31T04:44:23;0.00;;;0.00;;
12425;SDS011;6277;49.824;9.562;2023-08-31T04:46:48;0.00;;;0.00;;
12425;SDS011;6277;49.824;9.562;2023-08-31T04:49:14;0.00;;;0.00;;
12425;SDS011;6277;49.824;9.562;2023-08-31T04:51:39;0.00;;;0.00;;
12425;SDS011;6277;49.824;9.562;2023-08-31T04:54:07;0.00;;;0.00;;
12425;SDS011;6277;49.824;9.562;2023-08-31T04:56:32;0.00;;;0.00;;
12425;SDS011;6277;49.824;9.562;2023-08-31T04:58:58;0.00;;;0.00;;
12425;SDS011;6277;49.824;9.562;2023-08-31T05:01:24;0.00;;;0.00;;
12425;SDS011;6277;49.824;9.562;2023-08-31T05:03:50;0.00;;;0.00;;
12425;SDS011;6277;49.824;9.562;2023-08-31T05:06:16;0.00;;;0.00;;
12425;SDS011;6277;49.824;9.562;2023-08-31T05:08:42;0.00;;;0.00;;
12425;SDS011;6277;49.824;9.562;2023-08-31T05:11:07;0.00;;;0.00;;
12425;SDS011;6277;49.824;9.562;2023-08-31T05:13:33;0.00;;;0.00;;
12425;SDS011;6277;49.824;9.562;2023-08-31T05:15:59;0.10;;;0.10;;
12425;SDS011;6277;49.824;9.562;2023-08-31T05:18:25;0.00;;;0.00;;
12425;SDS011;6277;49.824;9.562;2023-08-31T05:20:51;0.10;;;0.10;;
12425;SDS011;6277;49.824;9.562;2023-08-31T05:23:16;0.10;;;0.10;;
12425;SDS011;6277;49.824;9.562;2023-08-31T05:25:42;0.20;;;0.20;;
12425;SDS011;6277;49.824;9.562;2023-08-31T05:28:11;0.28;;;0.28;;
12425;SDS011;6277;49.824;9.562;2023-08-31T05:30:36;0.20;;;0.20;;
12425;SDS011;6277;49.824;9.562;2023-08-31T05:33:10;0.30;;;0.20;;
12425;SDS011;6277;49.824;9.562;2023-08-31T05:35:36;0.25;;;0.25;;
12425;SDS011;6277;49.824;9.562;2023-08-31T05:38:01;0.20;;;0.20;;
12425;SDS011;6277;49.824;9.562;2023-08-31T05:40:28;0.25;;;0.20;;
12425;SDS011;6277;49.824;9.562;2023-08-31T05:42:54;0.10;;;0.10;;
12425;SDS011;6277;49.824;9.562;2023-08-31T05:45:20;0.15;;;0.15;;
12425;SDS011;6277;49.824;9.562;2023-08-31T05:47:45;0.20;;;0.20;;
12425;SDS011;6277;49.824;9.562;2023-08-31T05:50:11;0.25;;;0.20;;
12425;SDS011;6277;49.824;9.562;2023-08-31T05:52:36;0.20;;;0.20;;
12425;SDS011;6277;49.824;9.562;2023-08-31T05:55:02;0.20;;;0.20;;
12425;SDS011;6277;49.824;9.562;2023-08-31T05:57:28;0.47;;;0.13;;
12425;SDS011;6277;49.824;9.562;2023-08-31T05:59:54;0.10;;;0.10;;
12425;SDS011;6277;49.824;9.562;2023-08-31T06:02:19;0.10;;;0.10;;
12425;SDS011;6277;49.824;9.562;2023-08-31T06:04:45;0.15;;;0.13;;
12425;SDS011;6277;49.824;9.562;2023-08-31T06:07:10;0.28;;;0.20;;
12425;SDS011;6277;49.824;9.562;2023-08-31T06:09:36;0.30;;;0.30;;
12425;SDS011;6277;49.824;9.562;2023-08-31T06:12:02;0.47;;;0.30;;
12425;SDS011;6277;49.824;9.562;2023-08-31T06:14:29;0.13;;;0.13;;
12425;SDS011;6277;49.824;9.562;2023-08-31T06:16:54;0.10;;;0.10;;
12425;SDS011;6277;49.824;9.562;2023-08-31T06:19:20;0.10;;;0.10;;
12425;SDS011;6277;49.824;9.562;2023-08-31T06:21:45;0.20;;;0.20;;
12425;SDS011;6277;49.824;9.562;2023-08-31T06:24:11;0.30;;;0.28;;
12425;SDS011;6277;49.824;9.562;2023-08-31T06:26:38;0.20;;;0.20;;
12425;SDS011;6277;49.824;9.562;2023-08-31T06:29:04;0.10;;;0.10;;
12425;SDS011;6277;49.824;9.562;2023-08-31T06:31:29;0.10;;;0.10;;
12425;SDS011;6277;49.824;9.562;2023-08-31T06:33:55;0.10;;;0.10;;
12425;SDS011;6277;49.824;9.562;2023-08-31T06:36:20;0.10;;;0.10;;
12425;SDS011;6277;49.824;9.562;2023-08-31T06:38:46;0.10;;;0.10;;
12425;SDS011;6277;49.824;9.562;2023-08-31T06:41:11;0.10;;;0.10;;
12425;SDS011;6277;49.824;9.562;2023-08-31T06:43:37;0.03;;;0.00;;
12425;SDS011;6277;49.824;9.562;2023-08-31T06:46:02;0.05;;;0.05;;
12425;SDS011;6277;49.824;9.562;2023-08-31T06:48:28;0.08;;;0.00;;
12425;SDS011;6277;49.824;9.562;2023-08-31T06:50:54;0.10;;;0.10;;
12425;SDS011;6277;49.824;9.562;2023-08-31T06:53:21;0.10;;;0.10;;
12425;SDS011;6277;49.824;9.562;2023-08-31T06:55:46;0.20;;;0.10;;
12425;SDS011;6277;49.824;9.562;2023-08-31T06:58:12;0.10;;;0.10;;
12425;SDS011;6277;49.824;9.562;2023-08-31T07:00:37;0.10;;;0.10;;
12425;SDS011;6277;49.824;9.562;2023-08-31T07:03:03;0.10;;;0.10;;
12425;SDS011;6277;49.824;9.562;2023-08-31T07:05:32;0.10;;;0.10;;
12425;SDS011;6277;49.824;9.562;2023-08-31T07:08:00;0.10;;;0.10;;
12425;SDS011;6277;49.824;9.562;2023-08-31T07:10:27;0.00;;;0.00;;
12425;SDS011;6277;49.824;9.562;2023-08-31T07:12:52;0.10;;;0.10;;
12425;SDS011;6277;49.824;9.562;2023-08-31T07:15:18;0.10;;;0.10;;
12425;SDS011;6277;49.824;9.562;2023-08-31T07:17:43;0.10;;;0.10;;
12425;SDS011;6277;49.824;9.562;2023-08-31T07:20:11;0.00;;;0.00;;
12425;SDS011;6277;49.824;9.562;2023-08-31T07:22:37;0.00;;;0.00;;
12425;SDS011;6277;49.824;9.562;2023-08-31T07:25:03;0.10;;;0.10;;
12425;SDS011;6277;49.824;9.562;2023-08-31T07:27:29;0.00;;;0.00;;
12425;SDS011;6277;49.824;9.562;2023-08-31T07:29:55;0.13;;;0.10;;
12425;SDS011;6277;49.824;9.562;2023-08-31T07:32:20;0.10;;;0.10;;
12425;SDS011;6277;49.824;9.562;2023-08-31T07:34:47;0.10;;;0.10;;
12425;SDS011;6277;49.824;9.562;2023-08-31T07:37:12;0.00;;;0.00;;
12425;SDS011;6277;49.824;9.562;2023-08-31T07:39:38;0.08;;;0.08;;
12425;SDS011;6277;49.824;9.562;2023-08-31T07:42:04;0.28;;;0.20;;
12425;SDS011;6277;49.824;9.562;2023-08-31T07:44:30;0.30;;;0.20;;
12425;SDS011;6277;49.824;9.562;2023-08-31T07:46:56;0.30;;;0.30;;
12425;SDS011;6277;49.824;9.562;2023-08-31T07:49:21;0.20;;;0.20;;
12425;SDS011;6277;49.824;9.562;2023-08-31T07:51:47;0.30;;;0.30;;
12425;SDS011;6277;49.824;9.562;2023-08-31T07:54:19;0.63;;;0.40;;
12425;SDS011;6277;49.824;9.562;2023-08-31T07:56:47;0.45;;;0.30;;
12425;SDS011;6277;49.824;9.562;2023-08-31T07:59:13;0.43;;;0.40;;
12425;SDS011;6277;49.824;9.562;2023-08-31T08:01:38;0.75;;;0.40;;
12425;SDS011;6277;49.824;9.562;2023-08-31T08:04:05;0.30;;;0.30;;
12425;SDS011;6277;49.824;9.562;2023-08-31T08:06:31;0.30;;;0.30;;
12425;SDS011;6277;49.824;9.562;2023-08-31T08:08:57;0.52;;;0.30;;
12425;SDS011;6277;49.824;9.562;2023-08-31T08:11:22;0.20;;;0.20;;
12425;SDS011;6277;49.824;9.562;2023-08-31T08:13:48;0.28;;;0.28;;
12425;SDS011;6277;49.824;9.562;2023-08-31T08:16:14;0.30;;;0.22;;
12425;SDS011;6277;49.824;9.562;2023-08-31T08:18:40;0.30;;;0.30;;
12425;SDS011;6277;49.824;9.562;2023-08-31T08:21:06;0.25;;;0.25;;
12425;SDS011;6277;49.824;9.562;2023-08-31T08:23:32;0.30;;;0.30;;
12425;SDS011;6277;49.824;9.562;2023-08-31T08:25:57;0.57;;;0.40;;
12425;SDS011;6277;49.824;9.562;2023-08-31T08:28:24;0.75;;;0.40;;
12425;SDS011;6277;49.824;9.562;2023-08-31T08:30:50;0.30;;;0.30;;
12425;SDS011;6277;49.824;9.562;2023-08-31T08:33:16;0.30;;;0.30;;
12425;SDS011;6277;49.824;9.562;2023-08-31T08:35:42;0.30;;;0.30;;
12425;SDS011;6277;49.824;9.562;2023-08-31T08:38:07;0.82;;;0.30;;
12425;SDS011;6277;49.824;9.562;2023-08-31T08:40:34;0.50;;;0.22;;
12425;SDS011;6277;49.824;9.562;2023-08-31T08:43:00;0.38;;;0.38;;
12425;SDS011;6277;49.824;9.562;2023-08-31T08:45:26;0.30;;;0.30;;
12425;SDS011;6277;49.824;9.562;2023-08-31T08:47:57;0.43;;;0.38;;
12425;SDS011;6277;49.824;9.562;2023-08-31T08:50:23;1.33;;;0.90;;
12425;SDS011;6277;49.824;9.562;2023-08-31T08:52:49;0.95;;;0.88;;
12425;SDS011;6277;49.824;9.562;2023-08-31T08:55:16;1.75;;;1.00;;
12425;SDS011;6277;49.824;9.562;2023-08-31T08:57:42;1.85;;;1.00;;
12425;SDS011;6277;49.824;9.562;2023-08-31T09:00:07;3.38;;;1.92;;
12425;SDS011;6277;49.824;9.562;2023-08-31T09:02:33;2.38;;;1.27;;
12425;SDS011;6277;49.824;9.562;2023-08-31T09:04:59;2.60;;;1.40;;
12425;SDS011;6277;49.824;9.562;2023-08-31T09:07:25;2.58;;;1.40;;
12425;SDS011;6277;49.824;9.562;2023-08-31T09:09:54;3.28;;;1.30;;
12425;SDS011;6277;49.824;9.562;2023-08-31T09:12:24;2.72;;;1.70;;
12425;SDS011;6277;49.824;9.562;2023-08-31T09:15:02;2.90;;;1.70;;
12425;SDS011;6277;49.824;9.562;2023-08-31T09:17:41;2.67;;;1.70;;
12425;SDS011;6277;49.824;9.562;2023-08-31T09:20:10;2.28;;;1.60;;
12425;SDS011;6277;49.824;9.562;2023-08-31T09:22:35;2.35;;;1.65;;
12425;SDS011;6277;49.824;9.562;2023-08-31T09:25:01;1.70;;;1.33;;
12425;SDS011;6277;49.824;9.562;2023-08-31T09:27:28;3.88;;;1.50;;
12425;SDS011;6277;49.824;9.562;2023-08-31T09:29:56;2.00;;;1.45;;
12425;SDS011;6277;49.824;9.562;2023-08-31T09:32:21;2.08;;;1.38;;
12425;SDS011;6277;49.824;9.562;2023-08-31T09:34:47;2.38;;;1.45;;
12425;SDS011;6277;49.824;9.562;2023-08-31T09:37:15;2.53;;;1.40;;
12425;SDS011;6277;49.824;9.562;2023-08-31T09:39:41;3.45;;;1.75;;
12425;SDS011;6277;49.824;9.562;2023-08-31T09:42:07;1.92;;;1.33;;
12425;SDS011;6277;49.824;9.562;2023-08-31T09:44:33;2.50;;;1.55;;
12425;SDS011;6277;49.824;9.562;2023-08-31T09:46:59;1.30;;;1.20;;
12425;SDS011;6277;49.824;9.562;2023-08-31T09:49:25;3.33;;;1.40;;
12425;SDS011;6277;49.824;9.562;2023-08-31T09:51:52;3.63;;;1.40;;
12425;SDS011;6277;49.824;9.562;2023-08-31T09:54:19;2.17;;;1.33;;
12425;SDS011;6277;49.824;9.562;2023-08-31T09:56:47;2.30;;;1.60;;
12425;SDS011;6277;49.824;9.562;2023-08-31T09:59:13;2.53;;;1.63;;
12425;SDS011;6277;49.824;9.562;2023-08-31T10:01:40;2.33;;;1.60;;
12425;SDS011;6277;49.824;9.562;2023-08-31T10:04:07;2.28;;;1.50;;
12425;SDS011;6277;49.824;9.562;2023-08-31T10:06:40;2.33;;;1.48;;
12425;SDS011;6277;49.824;9.562;2023-08-31T10:09:06;3.05;;;1.80;;
12425;SDS011;6277;49.824;9.562;2023-08-31T10:11:34;2.58;;;1.70;;
12425;SDS011;6277;49.824;9.562;2023-08-31T10:14:01;3.30;;;1.60;;
12425;SDS011;6277;49.824;9.562;2023-08-31T10:16:28;3.70;;;1.65;;
12425;SDS011;6277;49.824;9.562;2023-08-31T10:18:55;3.60;;;1.63;;
12425;SDS011;6277;49.824;9.562;2023-08-31T10:21:21;2.22;;;1.52;;
12425;SDS011;6277;49.824;9.562;2023-08-31T10:23:47;5.15;;;2.53;;
12425;SDS011;6277;49.824;9.562;2023-08-31T10:26:23;2.70;;;1.60;;
12425;SDS011;6277;49.824;9.562;2023-08-31T10:28:51;2.90;;;1.30;;
12425;SDS011;6277;49.824;9.562;2023-08-31T10:31:17;2.08;;;1.40;;
12425;SDS011;6277;49.824;9.562;2023-08-31T10:33:44;1.83;;;1.50;;
12425;SDS011;6277;49.824;9.562;2023-08-31T10:36:20;2.65;;;1.50;;
12425;SDS011;6277;49.824;9.562;2023-08-31T10:41:21;2.78;;;1.50;;
12425;SDS011;6277;49.824;9.562;2023-08-31T10:43:54;2.30;;;1.50;;
12425;SDS011;6277;49.824;9.562;2023-08-31T10:46:33;4.50;;;1.48;;
12425;SDS011;6277;49.824;9.562;2023-08-31T10:51:42;1.95;;;1.50;;
12425;SDS011;6277;49.824;9.562;2023-08-31T10:54:13;2.28;;;1.35;;
12425;SDS011;6277;49.824;9.562;2023-08-31T10:59:23;2.20;;;1.35;;
12425;SDS011;6277;49.824;9.562;2023-08-31T11:02:00;2.10;;;1.23;;
12425;SDS011;6277;49.824;9.562;2023-08-31T11:04:29;1.42;;;0.90;;
12425;SDS011;6277;49.824;9.562;2023-08-31T11:07:15;2.95;;;1.30;;
12425;SDS011;6277;49.824;9.562;2023-08-31T11:09:42;1.60;;;1.02;;
12425;SDS011;6277;49.824;9.562;2023-08-31T11:12:09;1.83;;;1.05;;
12425;SDS011;6277;49.824;9.562;2023-08-31T11:14:34;2.47;;;1.20;;
12425;SDS011;6277;49.824;9.562;2023-08-31T11:17:00;2.05;;;1.00;;
12425;SDS011;6277;49.824;9.562;2023-08-31T11:19:27;2.70;;;1.17;;
12425;SDS011;6277;49.824;9.562;2023-08-31T11:21:53;2.20;;;1.00;;
12425;SDS011;6277;49.824;9.562;2023-08-31T11:24:19;2.60;;;0.90;;
12425;SDS011;6277;49.824;9.562;2023-08-31T11:26:47;1.85;;;1.35;;
12425;SDS011;6277;49.824;9.562;2023-08-31T11:29:16;2.72;;;1.20;;
12425;SDS011;6277;49.824;9.562;2023-08-31T11:31:42;1.92;;;1.10;;
12425;SDS011;6277;49.824;9.562;2023-08-31T11:34:14;2.10;;;0.90;;
12425;SDS011;6277;49.824;9.562;2023-08-31T11:36:41;1.63;;;0.90;;
12425;SDS011;6277;49.824;9.562;2023-08-31T11:39:11;1.13;;;0.90;;
12425;SDS011;6277;49.824;9.562;2023-08-31T11:41:37;1.75;;;1.00;;
12425;SDS011;6277;49.824;9.562;2023-08-31T11:44:13;2.45;;;1.02;;
12425;SDS011;6277;49.824;9.562;2023-08-31T11:46:43;2.28;;;0.90;;
12425;SDS011;6277;49.824;9.562;2023-08-31T11:49:11;3.25;;;1.10;;
12425;SDS011;6277;49.824;9.562;2023-08-31T11:51:37;1.98;;;1.00;;
12425;SDS011;6277;49.824;9.562;2023-08-31T11:54:04;1.88;;;0.98;;
12425;SDS011;6277;49.824;9.562;2023-08-31T11:56:40;2.63;;;1.00;;
12425;SDS011;6277;49.824;9.562;2023-08-31T11:59:12;2.78;;;1.10;;
12425;SDS011;6277;49.824;9.562;2023-08-31T12:01:42;5.22;;;1.10;;
12425;SDS011;6277;49.824;9.562;2023-08-31T12:04:15;2.25;;;0.93;;
12425;SDS011;6277;49.824;9.562;2023-08-31T12:06:41;1.63;;;0.80;;
12425;SDS011;6277;49.824;9.562;2023-08-31T12:09:12;3.78;;;1.15;;
12425;SDS011;6277;49.824;9.562;2023-08-31T12:11:37;2.13;;;0.80;;
12425;SDS011;6277;49.824;9.562;2023-08-31T12:14:03;1.70;;;1.00;;
12425;SDS011;6277;49.824;9.562;2023-08-31T12:16:43;1.73;;;1.02;;
12425;SDS011;6277;49.824;9.562;2023-08-31T12:19:09;1.25;;;1.00;;
12425;SDS011;6277;49.824;9.562;2023-08-31T12:21:35;1.20;;;0.77;;
12425;SDS011;6277;49.824;9.562;2023-08-31T12:24:01;1.58;;;0.93;;
12425;SDS011;6277;49.824;9.562;2023-08-31T12:26:28;2.05;;;0.77;;
12425;SDS011;6277;49.824;9.562;2023-08-31T12:28:54;1.23;;;0.90;;
12425;SDS011;6277;49.824;9.562;2023-08-31T12:31:19;1.30;;;0.80;;
12425;SDS011;6277;49.824;9.562;2023-08-31T12:33:45;1.83;;;1.10;;
12425;SDS011;6277;49.824;9.562;2023-08-31T12:36:11;1.75;;;1.05;;
12425;SDS011;6277;49.824;9.562;2023-08-31T12:38:37;3.03;;;0.88;;
12425;SDS011;6277;49.824;9.562;2023-08-31T12:41:03;2.92;;;1.05;;
12425;SDS011;6277;49.824;9.562;2023-08-31T12:43:28;1.80;;;1.02;;
12425;SDS011;6277;49.824;9.562;2023-08-31T12:45:55;1.85;;;1.05;;
12425;SDS011;6277;49.824;9.562;2023-08-31T12:48:21;2.78;;;1.20;;
12425;SDS011;6277;49.824;9.562;2023-08-31T12:50:46;2.83;;;1.10;;
12425;SDS011;6277;49.824;9.562;2023-08-31T12:53:13;2.17;;;1.20;;
12425;SDS011;6277;49.824;9.562;2023-08-31T12:55:39;1.90;;;0.93;;
12425;SDS011;6277;49.824;9.562;2023-08-31T12:58:04;1.92;;;0.90;;
12425;SDS011;6277;49.824;9.562;2023-08-31T13:00:30;1.25;;;0.90;;
12425;SDS011;6277;49.824;9.562;2023-08-31T13:02:56;1.75;;;0.90;;
12425;SDS011;6277;49.824;9.562;2023-08-31T13:05:21;1.88;;;1.27;;
12425;SDS011;6277;49.824;9.562;2023-08-31T13:07:47;2.38;;;1.02;;
12425;SDS011;6277;49.824;9.562;2023-08-31T13:10:12;2.03;;;1.00;;
12425;SDS011;6277;49.824;9.562;2023-08-31T13:12:38;1.90;;;1.02;;
12425;SDS011;6277;49.824;9.562;2023-08-31T13:15:03;1.60;;;1.13;;
12425;SDS011;6277;49.824;9.562;2023-08-31T13:17:29;2.42;;;1.05;;
12425;SDS011;6277;49.824;9.562;2023-08-31T13:19:56;2.47;;;1.10;;
12425;SDS011;6277;49.824;9.562;2023-08-31T13:22:22;1.58;;;0.80;;
12425;SDS011;6277;49.824;9.562;2023-08-31T13:24:48;1.73;;;0.90;;
12425;SDS011;6277;49.824;9.562;2023-08-31T13:27:14;2.80;;;1.10;;
12425;SDS011;6277;49.824;9.562;2023-08-31T13:29:39;1.80;;;1.00;;
12425;SDS011;6277;49.824;9.562;2023-08-31T13:32:05;1.73;;;0.90;;
12425;SDS011;6277;49.824;9.562;2023-08-31T13:34:31;2.10;;;1.00;;
12425;SDS011;6277;49.824;9.562;2023-08-31T13:36:56;1.67;;;0.90;;
12425;SDS011;6277;49.824;9.562;2023-08-31T13:39:22;2.10;;;0.90;;
12425;SDS011;6277;49.824;9.562;2023-08-31T13:41:49;1.77;;;0.82;;
12425;SDS011;6277;49.824;9.562;2023-08-31T13:44:16;2.17;;;0.95;;
12425;SDS011;6277;49.824;9.562;2023-08-31T13:46:42;2.25;;;0.95;;
12425;SDS011;6277;49.824;9.562;2023-08-31T13:49:08;2.67;;;0.90;;
12425;SDS011;6277;49.824;9.562;2023-08-31T13:51:34;1.35;;;0.80;;
12425;SDS011;6277;49.824;9.562;2023-08-31T13:53:59;1.80;;;0.80;;
12425;SDS011;6277;49.824;9.562;2023-08-31T13:56:26;1.58;;;1.13;;
12425;SDS011;6277;49.824;9.562;2023-08-31T13:58:51;1.50;;;1.00;;
12425;SDS011;6277;49.824;9.562;2023-08-31T14:01:17;2.78;;;1.15;;
12425;SDS011;6277;49.824;9.562;2023-08-31T14:03:42;2.50;;;0.95;;
12425;SDS011;6277;49.824;9.562;2023-08-31T14:06:08;2.72;;;0.90;;
12425;SDS011;6277;49.824;9.562;2023-08-31T14:08:34;2.35;;;1.05;;
12425;SDS011;6277;49.824;9.562;2023-08-31T14:10:59;2.17;;;1.20;;
12425;SDS011;6277;49.824;9.562;2023-08-31T14:13:26;2.10;;;1.02;;
12425;SDS011;6277;49.824;9.562;2023-08-31T14:15:52;1.13;;;0.90;;
12425;SDS011;6277;49.824;9.562;2023-08-31T14:18:17;1.70;;;0.90;;
12425;SDS011;6277;49.824;9.562;2023-08-31T14:20:43;1.60;;;1.10;;
12425;SDS011;6277;49.824;9.562;2023-08-31T14:23:09;2.15;;;1.00;;
12425;SDS011;6277;49.824;9.562;2023-08-31T14:25:35;1.48;;;0.85;;
12425;SDS011;6277;49.824;9.562;2023-08-31T14:28:01;3.92;;;1.45;;
12425;SDS011;6277;49.824;9.562;2023-08-31T14:30:28;1.42;;;0.88;;
12425;SDS011;6277;49.824;9.562;2023-08-31T14:32:53;1.65;;;0.90;;
12425;SDS011;6277;49.824;9.562;2023-08-31T14:35:19;2.83;;;1.10;;
12425;SDS011;6277;49.824;9.562;2023-08-31T14:37:44;2.28;;;1.05;;
12425;SDS011;6277;49.824;9.562;2023-08-31T14:40:10;2.17;;;1.02;;
12425;SDS011;6277;49.824;9.562;2023-08-31T14:42:36;3.35;;;1.23;;
12425;SDS011;6277;49.824;9.562;2023-08-31T14:45:01;2.28;;;1.20;;
12425;SDS011;6277;49.824;9.562;2023-08-31T14:47:27;2.05;;;1.10;;
12425;SDS011;6277;49.824;9.562;2023-08-31T14:49:54;2.85;;;1.17;;
12425;SDS011;6277;49.824;9.562;2023-08-31T14:52:20;2.45;;;1.10;;
12425;SDS011;6277;49.824;9.562;2023-08-31T14:54:46;3.80;;;1.52;;
12425;SDS011;6277;49.824;9.562;2023-08-31T14:57:11;1.60;;;0.90;;
12425;SDS011;6277;49.824;9.562;2023-08-31T14:59:37;2.53;;;1.17;;
12425;SDS011;6277;49.824;9.562;2023-08-31T15:02:02;2.30;;;1.20;;
12425;SDS011;6277;49.824;9.562;2023-08-31T15:04:30;2.13;;;1.10;;
12425;SDS011;6277;49.824;9.562;2023-08-31T15:06:56;2.67;;;0.90;;
12425;SDS011;6277;49.824;9.562;2023-08-31T15:09:22;1.83;;;1.02;;
12425;SDS011;6277;49.824;9.562;2023-08-31T15:11:48;2.33;;;1.05;;
12425;SDS011;6277;49.824;9.562;2023-08-31T15:14:13;1.83;;;1.00;;
12425;SDS011;6277;49.824;9.562;2023-08-31T15:16:39;4.28;;;1.40;;